.
WxDataArchive / Data Records for 2014-11-24
2014-11-23 November 2014 2014-11-25

Data Records for Monday, 24 November 2014

Time	Temp	Chill	HIndex	Humid	Dewpt	 Wind 	HiWind	WindDir	Rain 	Barom
-----	----	-----	------	-----	-----	------	------	-------	-----	-----
00:00	53.8	53.8	53.8	96	52.7	2	9	90	0.01	29.108 
00:05	53.9	53.9	53.9	96	52.8	2	7	112	0.01	29.108 
00:10	53.9	53.9	53.9	96	52.8	2	5	112	0.00	29.108 
00:15	53.9	53.9	53.9	96	52.8	1	7	112	0.01	29.094 
00:20	54.1	54.1	54.1	96	53.0	1	3	112	0.01	29.094 
00:25	54.1	54.1	54.1	96	53.0	1	5	112	0.00	29.094 
00:30	54.2	54.2	54.2	96	53.1	2	6	90	0.01	29.081 
00:35	54.4	54.4	54.4	96	53.3	1	6	90	0.00	29.081 
00:40	54.4	54.4	54.4	96	53.3	1	6	90	0.02	29.081 
00:45	54.4	54.4	54.4	96	53.3	1	4	22	0.01	29.072 
00:50	54.5	54.5	54.5	96	53.4	2	6	90	0.01	29.072 
00:55	54.5	54.5	54.5	96	53.4	2	6	112	0.00	29.072 
01:00	54.7	54.7	54.7	96	53.6	2	6	68	0.00	29.063 
01:05	54.8	54.8	54.8	96	53.7	2	12	90	0.00	29.063 
01:10	54.8	54.8	54.8	96	53.7	3	7	90	0.00	29.063 
01:15	54.8	54.8	54.8	96	53.7	2	7	90	0.01	29.054 
01:20	54.8	54.8	54.8	96	53.7	2	6	68	0.00	29.054 
01:25	54.8	54.8	54.8	96	53.7	2	7	68	0.00	29.054 
01:30	55.0	55.0	55.0	96	53.9	2	5	45	0.01	29.054 
01:35	55.0	55.0	55.0	96	53.9	2	9	90	0.00	29.054 
01:40	55.0	55.0	55.0	96	53.9	1	6	45	0.01	29.054 
01:45	55.1	55.1	55.1	96	54.0	1	5	315	0.00	29.053 
01:50	55.1	55.1	55.1	96	54.0	2	12	248	0.00	29.053 
01:55	55.1	55.1	55.1	96	54.0	3	10	270	0.01	29.053 
02:00	55.3	55.3	55.3	96	54.2	2	10	248	0.00	29.065 
02:05	55.3	55.3	55.3	96	54.2	2	7	248	0.00	29.065 
02:10	55.3	55.3	55.3	96	54.2	3	10	248	0.01	29.065 
02:15	55.1	55.1	55.1	96	54.0	3	9	248	0.00	29.078 
02:20	55.0	55.0	55.0	96	53.9	2	6	270	0.00	29.078 
02:25	54.8	54.8	54.8	96	53.7	2	9	248	0.00	29.078 
02:30	54.7	54.7	54.7	96	53.6	3	9	248	0.00	29.084 
02:35	54.5	54.5	54.5	95	53.1	2	7	248	0.00	29.084 
02:40	54.5	54.5	54.5	95	53.1	3	7	248	0.00	29.084 
02:45	54.4	54.4	54.4	95	53.0	1	5	248	0.01	29.086 
02:50	54.2	54.2	54.2	95	52.8	2	9	248	0.00	29.086 
02:55	54.2	54.2	54.2	95	52.8	2	5	248	0.00	29.086 
03:00	54.2	54.2	54.2	95	52.8	3	9	248	0.00	29.100 
03:05	54.1	54.1	54.1	95	52.7	2	14	248	0.00	29.100 
03:10	54.1	54.1	54.1	95	52.7	2	14	248	0.00	29.100 
03:15	54.1	54.1	54.1	95	52.7	2	6	248	0.00	29.114 
03:20	54.1	54.1	54.1	95	52.7	2	7	248	0.00	29.114 
03:25	53.9	53.9	53.9	95	52.5	2	7	270	0.00	29.114 
03:30	53.9	53.9	53.9	94	52.2	2	12	248	0.00	29.120 
03:35	53.9	53.9	53.9	94	52.2	2	5	248	0.00	29.120 
03:40	53.9	53.9	53.9	94	52.2	2	6	248	0.00	29.120 
03:45	53.8	53.8	53.8	94	52.1	1	5	270	0.00	29.129 
03:50	53.8	53.8	53.8	94	52.1	1	5	248	0.00	29.129 
03:55	53.8	53.8	53.8	94	52.1	1	6	248	0.00	29.129 
04:00	53.8	53.8	53.8	94	52.1	1	4	248	0.00	29.133 
04:05	53.6	53.6	53.6	94	51.9	1	5	248	0.00	29.133 
04:10	53.6	53.6	53.6	94	51.9	2	7	248	0.00	29.133 
04:15	53.6	53.6	53.6	94	51.9	2	7	248	0.00	29.135 
04:20	53.8	53.8	53.8	94	52.1	2	10	248	0.00	29.135 
04:25	53.8	53.8	53.8	94	52.1	1	3	248	0.00	29.135 
04:30	53.8	53.8	53.8	94	52.1	2	5	248	0.00	29.136 
04:35	53.8	53.8	53.8	94	52.1	1	6	248	0.01	29.136 
04:40	53.8	53.8	53.8	94	52.1	1	9	248	0.00	29.136 
04:45	53.8	53.8	53.8	95	52.4	1	5	270	0.00	29.136 
04:50	53.9	53.9	53.9	95	52.5	1	5	248	0.00	29.136 
04:55	53.9	53.9	53.9	95	52.5	2	6	248	0.00	29.136 
05:00	54.1	54.1	54.1	95	52.7	3	11	248	0.00	29.136 
05:05	54.1	54.1	54.1	94	52.4	1	6	248	0.00	29.136 
05:10	54.2	54.2	54.2	94	52.5	1	6	248	0.00	29.136 
05:15	54.2	54.2	54.2	94	52.5	0	3	248	0.00	29.138 
05:20	54.2	54.2	54.2	94	52.5	1	9	248	0.00	29.138 
05:25	54.2	54.2	54.2	94	52.5	1	6	248	0.00	29.138 
05:30	54.2	54.2	54.2	94	52.5	1	3	248	0.00	29.133 
05:35	54.4	54.4	54.4	94	52.7	1	3	248	0.00	29.133 
05:40	54.4	54.4	54.4	94	52.7	1	5	248	0.00	29.133 
05:45	54.4	54.4	54.4	94	52.7	1	5	248	0.00	29.134 
05:50	54.4	54.4	54.4	94	52.7	0	3	248	0.00	29.134 
05:55	54.4	54.4	54.4	94	52.7	1	4	248	0.00	29.134 
06:00	54.4	54.4	54.4	94	52.7	1	5	248	0.00	29.134 
06:05	54.5	54.5	54.5	94	52.8	1	4	270	0.00	29.134 
06:10	54.5	54.5	54.5	94	52.8	1	5	270	0.00	29.134 
06:15	54.5	54.5	54.5	94	52.8	1	3	270	0.00	29.131 
06:20	54.5	54.5	54.5	94	52.8	1	4	270	0.00	29.131 
06:25	54.7	54.7	54.7	94	53.0	1	7	270	0.01	29.131 
06:30	54.7	54.7	54.7	93	52.7	0	3	270	0.01	29.126 
06:35	54.5	54.5	54.5	93	52.5	1	5	270	0.01	29.126 
06:40	54.5	54.5	54.5	93	52.5	1	3	270	0.00	29.126 
06:45	54.4	54.4	54.4	93	52.4	1	3	270	0.00	29.117 
06:50	54.2	54.2	54.2	93	52.2	1	4	270	0.00	29.117 
06:55	54.2	54.2	54.2	93	52.2	1	4	45	0.01	29.117 
07:00	54.2	54.2	54.2	93	52.2	1	4	45	0.02	29.118 
07:05	54.2	54.2	54.2	93	52.2	1	3	270	0.00	29.118 
07:10	54.2	54.2	54.2	93	52.2	1	5	248	0.00	29.118 
07:15	54.2	54.2	54.2	93	52.2	2	4	248	0.01	29.105 
07:20	54.2	54.2	54.2	93	52.2	2	8	248	0.00	29.105 
07:25	54.2	54.2	54.2	92	51.9	1	7	248	0.00	29.105 
07:30	54.2	54.2	54.2	92	51.9	1	5	248	0.00	29.106 
07:35	54.1	54.1	54.1	92	51.8	1	3	248	0.00	29.106 
07:40	54.1	54.1	54.1	92	51.8	1	5	248	0.00	29.106 
07:45	54.1	54.1	54.1	92	51.8	1	5	248	0.00	29.122 
07:50	54.1	54.1	54.1	92	51.8	1	5	248	0.00	29.122 
07:55	54.1	54.1	54.1	92	51.8	1	6	248	0.03	29.122 
08:00	53.6	53.6	53.6	91	51.0	3	8	248	0.02	29.112 
08:05	53.5	53.5	53.5	91	50.9	2	5	248	0.00	29.112 
08:10	53.5	53.5	53.5	91	50.9	1	5	248	0.00	29.112 
08:15	53.3	53.3	53.3	91	50.7	1	6	248	0.00	29.105 
08:20	53.3	53.3	53.3	91	50.7	1	4	248	0.00	29.105 
08:25	53.5	53.5	53.5	91	50.9	1	5	248	0.00	29.105 
08:30	53.6	53.6	53.6	91	51.0	1	2	248	0.00	29.103 
08:35	53.6	53.6	53.6	90	50.7	1	5	270	0.00	29.103 
08:40	53.8	53.8	53.8	90	50.9	0	2	248	0.00	29.103 
08:45	53.9	53.9	53.9	90	51.0	0	5	248	0.00	29.101 
08:50	53.9	53.9	53.9	90	51.0	0	2	248	0.01	29.101 
08:55	53.9	53.9	53.9	91	51.3	0	2	315	0.00	29.101 
09:00	54.1	54.1	54.1	91	51.5	1	4	68	0.00	29.103 
09:05	54.2	54.2	54.2	92	51.9	0	2	248	0.00	29.103 
09:10	54.4	54.4	54.4	92	52.1	0	3	270	0.00	29.103 
09:15	54.5	54.5	54.5	92	52.2	0	4	270	0.00	29.101 
09:20	54.7	54.7	54.7	92	52.4	0	3	248	0.00	29.101 
09:25	54.8	54.8	54.8	92	52.5	1	5	112	0.00	29.101 
09:30	55.0	55.0	55.0	92	52.7	1	5	248	0.00	29.102 
09:35	55.0	55.0	55.0	92	52.7	2	6	270	0.00	29.102 
09:40	55.0	55.0	55.0	92	52.7	2	10	248	0.00	29.102 
09:45	55.0	55.0	55.0	91	52.4	2	10	248	0.00	29.114 
09:50	55.3	55.3	55.3	89	52.1	3	10	248	0.00	29.114 
09:55	55.6	55.6	55.6	88	52.1	3	12	248	0.00	29.114 
10:00	55.9	55.9	55.9	86	51.8	2	7	248	0.00	29.117 
10:05	55.7	55.7	55.7	84	50.9	4	12	248	0.00	29.117 
10:10	55.7	55.7	55.7	83	50.6	3	13	248	0.00	29.117 
10:15	55.6	55.6	55.6	82	50.2	3	14	248	0.00	29.134 
10:20	55.7	55.7	55.7	80	49.6	5	14	248	0.00	29.134 
10:25	55.9	55.9	55.9	79	49.5	4	11	248	0.00	29.134 
10:30	55.3	55.3	55.3	77	48.2	5	17	270	0.00	29.148 
10:35	54.7	54.7	54.7	78	48.0	4	13	248	0.00	29.148 
10:40	53.1	53.1	53.1	77	46.1	6	13	248	0.00	29.148 
10:45	51.6	51.6	51.6	78	45.0	6	24	248	0.00	29.186 
10:50	50.1	50.1	50.1	79	43.8	7	18	270	0.00	29.186 
10:55	49.4	48.2	49.4	81	43.8	4	13	270	0.00	29.186 
11:00	48.6	46.0	48.6	81	43.0	6	12	248	0.00	29.199 
11:05	48.3	46.2	48.3	82	43.1	5	16	248	0.00	29.199 
11:10	48.0	46.6	48.0	84	43.4	4	9	248	0.00	29.199 
11:15	47.6	45.4	47.6	82	42.4	5	14	248	0.00	29.219 
11:20	47.3	45.0	47.3	82	42.1	5	15	248	0.00	29.219 
11:25	46.7	43.7	46.7	81	41.2	6	15	248	0.00	29.219 
11:30	46.2	44.5	46.2	82	41.0	4	12	248	0.00	29.249 
11:35	45.5	42.9	45.5	82	40.3	5	14	270	0.00	29.249 
11:40	44.9	42.2	44.9	81	39.4	5	16	248	0.00	29.249 
11:45	44.2	40.2	44.2	83	39.4	7	17	248	0.00	29.278 
11:50	43.6	41.5	43.6	84	39.1	4	18	248	0.00	29.278 
11:55	43.2	40.2	43.2	83	38.4	5	13	248	0.00	29.278 
12:00	42.8	39.8	42.8	83	38.0	5	17	248	0.00	29.292 
12:05	42.5	40.2	42.5	82	37.4	4	9	270	0.00	29.292 
12:10	42.2	39.1	42.2	80	36.5	5	14	248	0.00	29.292 
12:15	41.9	38.7	41.9	81	36.5	5	14	248	0.00	29.304 
12:20	41.5	39.1	41.5	83	36.7	4	13	248	0.00	29.304 
12:25	40.8	37.4	40.8	84	36.3	5	14	248	0.00	29.304 
12:30	40.5	36.4	40.5	81	35.1	6	17	248	0.00	29.329 
12:35	40.3	36.1	40.3	80	34.6	6	13	248	0.00	29.329 
12:40	40.1	35.9	40.1	77	33.5	6	17	248	0.00	29.329 
12:45	39.8	35.5	39.8	76	32.9	6	18	248	0.00	29.353 
12:50	39.6	34.7	39.6	75	32.3	7	17	248	0.00	29.353 
12:55	39.5	34.5	39.5	75	32.2	7	17	248	0.00	29.353 
13:00	39.3	34.9	39.3	74	31.7	6	17	248	0.00	29.364 
13:05	39.2	35.5	39.2	75	32.0	5	12	248	0.00	29.364 
13:10	39.2	35.5	39.2	76	32.3	5	12	248	0.00	29.364 
13:15	39.1	34.1	39.1	76	32.2	7	17	248	0.00	29.379 
13:20	38.9	34.4	38.9	76	32.0	6	13	248	0.00	29.379 
13:25	38.9	35.2	38.9	76	32.0	5	15	248	0.00	29.379 
13:30	38.8	34.3	38.8	75	31.6	6	15	248	0.00	29.392 
13:35	38.8	34.3	38.8	75	31.6	6	14	270	0.00	29.392 
13:40	38.8	35.1	38.8	76	31.9	5	12	248	0.00	29.392 
13:45	38.6	34.8	38.6	76	31.7	5	13	248	0.00	29.405 
13:50	38.5	34.0	38.5	77	31.9	6	14	248	0.00	29.405 
13:55	38.3	34.5	38.3	77	31.7	5	14	248	0.00	29.405 
14:00	38.3	33.7	38.3	77	31.7	6	14	248	0.00	29.427 
14:05	38.3	34.5	38.3	78	32.1	5	13	248	0.00	29.427 
14:10	38.3	34.5	38.3	78	32.1	5	16	270	0.00	29.427 
14:15	38.3	35.4	38.3	79	32.4	4	16	270	0.00	29.438 
14:20	38.3	34.5	38.3	77	31.7	5	16	248	0.00	29.438 
14:25	38.5	34.7	38.5	77	31.9	5	12	248	0.00	29.438 
14:30	38.5	38.5	38.5	77	31.9	3	12	248	0.00	29.452 
14:35	38.5	34.7	38.5	77	31.9	5	17	248	0.00	29.452 
14:40	38.3	33.7	38.3	78	32.1	6	17	248	0.00	29.452 
14:45	38.2	35.2	38.2	79	32.3	4	12	248	0.00	29.465 
14:50	38.2	35.2	38.2	79	32.3	4	13	248	0.00	29.465 
14:55	38.0	35.0	38.0	79	32.1	4	13	248	0.00	29.465 
15:00	38.0	33.4	38.0	77	31.4	6	13	248	0.00	29.486 
15:05	38.0	34.1	38.0	77	31.4	5	14	248	0.00	29.486 
15:10	38.0	34.1	38.0	77	31.4	5	11	248	0.00	29.486 
15:15	38.0	32.7	38.0	78	31.8	7	15	248	0.00	29.499 
15:20	38.0	33.4	38.0	77	31.4	6	15	248	0.00	29.499 
15:25	38.2	33.6	38.2	75	31.0	6	15	248	0.00	29.499 
15:30	38.2	34.4	38.2	74	30.7	5	13	248	0.00	29.507 
15:35	37.9	34.0	37.9	75	30.7	5	16	248	0.00	29.507 
15:40	37.8	33.1	37.8	74	30.3	6	18	248	0.00	29.507 
15:45	37.8	37.8	37.8	74	30.3	3	11	248	0.00	29.525 
15:50	37.6	33.7	37.6	72	29.4	5	14	248	0.00	29.525 
15:55	37.6	33.7	37.6	72	29.4	5	13	248	0.00	29.525 
16:00	37.3	32.5	37.3	71	28.8	6	15	248	0.00	29.542 
16:05	37.2	33.2	37.2	71	28.7	5	18	248	0.00	29.542 
16:10	37.0	33.9	37.0	72	28.8	4	14	248	0.00	29.542 
16:15	36.9	33.7	36.9	72	28.7	4	11	248	0.00	29.554 
16:20	36.8	33.6	36.8	72	28.6	4	10	248	0.00	29.554 
16:25	36.8	32.7	36.8	72	28.6	5	15	248	0.00	29.554 
16:30	36.6	31.7	36.6	73	28.8	6	13	270	0.00	29.572 
16:35	36.5	33.3	36.5	74	29.0	4	11	248	0.00	29.572 
16:40	36.3	36.3	36.3	75	29.1	3	10	248	0.00	29.572 
16:45	36.3	33.0	36.3	76	29.5	4	12	248	0.00	29.580 
16:50	36.2	36.2	36.2	77	29.7	3	10	248	0.00	29.580 
16:55	36.2	32.9	36.2	77	29.7	4	11	248	0.00	29.580 
17:00	36.0	36.0	36.0	78	29.8	3	10	248	0.00	29.593 
17:05	36.0	32.7	36.0	79	30.1	4	12	248	0.00	29.593 
17:10	35.9	32.6	35.9	80	30.3	4	13	248	0.00	29.593 
17:15	35.9	35.9	35.9	81	30.6	2	5	248	0.00	29.600 
17:20	35.8	32.5	35.8	82	30.9	4	10	248	0.00	29.600 
17:25	35.6	35.6	35.6	84	31.3	3	10	248	0.00	29.600 
17:30	35.5	35.5	35.5	84	31.2	3	11	248	0.00	29.607 
17:35	35.3	35.3	35.3	84	31.0	3	5	248	0.00	29.607 
17:40	35.2	35.2	35.2	85	31.2	3	10	248	0.00	29.607 
17:45	35.0	35.0	35.0	85	31.0	3	9	248	0.00	29.623 
17:50	35.0	30.6	35.0	82	30.1	5	14	248	0.00	29.623 
17:55	35.2	35.2	35.2	81	30.0	3	13	248	0.00	29.623 
18:00	35.2	30.8	35.2	80	29.7	5	11	248	0.00	29.636 
18:05	35.2	31.8	35.2	79	29.4	4	13	248	0.00	29.636 
18:10	35.0	31.5	35.0	78	28.8	4	10	248	0.00	29.636 
18:15	35.2	30.8	35.2	77	28.7	5	17	248	0.00	29.639 
18:20	35.2	35.2	35.2	76	28.4	3	9	248	0.00	29.639 
18:25	35.2	31.8	35.2	76	28.4	4	13	248	0.00	29.639 
18:30	35.2	31.8	35.2	76	28.4	4	13	248	0.00	29.654 
18:35	35.2	30.8	35.2	75	28.1	5	10	248	0.00	29.654 
18:40	35.2	30.8	35.2	74	27.8	5	12	248	0.00	29.654 
18:45	35.0	30.6	35.0	74	27.6	5	11	248	0.00	29.658 
18:50	35.0	31.5	35.0	74	27.6	4	7	248	0.00	29.658 
18:55	34.9	30.5	34.9	73	27.1	5	13	248	0.00	29.658 
19:00	34.7	29.4	34.7	73	26.9	6	13	248	0.00	29.672 
19:05	34.6	30.1	34.6	73	26.9	5	14	248	0.00	29.672 
19:10	34.4	29.9	34.4	72	26.3	5	13	248	0.00	29.672 
19:15	34.4	30.8	34.4	72	26.3	4	12	248	0.00	29.684 
19:20	34.4	28.4	34.4	70	25.6	7	16	248	0.00	29.684 
19:25	34.4	29.1	34.4	70	25.6	6	12	248	0.00	29.684 
19:30	34.4	29.1	34.4	70	25.6	6	14	248	0.00	29.687 
19:35	34.6	31.1	34.6	70	25.8	4	10	248	0.00	29.687 
19:40	34.6	31.1	34.6	71	26.2	4	10	248	0.00	29.687 
19:45	34.6	30.1	34.6	70	25.8	5	12	248	0.00	29.693 
19:50	34.6	31.1	34.6	71	26.2	4	11	248	0.00	29.693 
19:55	34.6	31.1	34.6	71	26.2	4	11	248	0.00	29.693 
20:00	34.6	30.1	34.6	71	26.2	5	13	248	0.00	29.693 
20:05	34.6	30.1	34.6	70	25.8	5	12	270	0.00	29.693 
20:10	34.7	30.2	34.7	70	25.9	5	11	248	0.00	29.693 
20:15	34.7	31.2	34.7	70	25.9	4	11	248	0.00	29.702 
20:20	34.7	31.2	34.7	70	25.9	4	12	248	0.00	29.702 
20:25	34.7	31.2	34.7	70	25.9	4	9	248	0.00	29.702 
20:30	34.7	30.2	34.7	69	25.6	5	13	248	0.00	29.717 
20:35	34.7	29.4	34.7	67	24.9	6	13	248	0.00	29.717 
20:40	34.7	31.2	34.7	68	25.2	4	12	248	0.00	29.717 
20:45	34.6	30.1	34.6	68	25.1	5	12	248	0.00	29.727 
20:50	34.6	34.6	34.6	69	25.5	3	11	248	0.00	29.727 
20:55	34.6	34.6	34.6	70	25.8	3	11	248	0.00	29.727 
21:00	34.7	34.7	34.7	70	25.9	3	8	248	0.00	29.733 
21:05	34.6	34.6	34.6	71	26.2	3	11	248	0.00	29.733 
21:10	34.6	31.1	34.6	71	26.2	4	11	248	0.00	29.733 
21:15	34.6	31.1	34.6	71	26.2	4	10	248	0.00	29.732 
21:20	34.6	34.6	34.6	72	26.5	3	9	248	0.00	29.732 
21:25	34.6	31.1	34.6	72	26.5	4	13	248	0.00	29.732 
21:30	34.6	31.1	34.6	72	26.5	4	13	248	0.00	29.740 
21:35	34.6	34.6	34.6	73	26.9	3	10	248	0.00	29.740 
21:40	34.6	30.1	34.6	73	26.9	5	13	248	0.00	29.740 
21:45	34.4	29.9	34.4	73	26.7	5	20	248	0.00	29.749 
21:50	34.4	29.9	34.4	74	27.0	5	13	248	0.00	29.749 
21:55	34.4	29.9	34.4	74	27.0	5	11	248	0.00	29.749 
22:00	34.4	29.9	34.4	74	27.0	5	14	248	0.00	29.749 
22:05	34.4	30.8	34.4	73	26.7	4	14	248	0.00	29.749 
22:10	34.4	29.9	34.4	73	26.7	5	13	248	0.00	29.749 
22:15	34.3	29.8	34.3	72	26.2	5	14	248	0.00	29.766 
22:20	34.3	29.8	34.3	72	26.2	5	12	248	0.00	29.766 
22:25	34.3	29.8	34.3	71	25.9	5	11	248	0.00	29.766 
22:30	34.1	29.5	34.1	72	26.0	5	12	248	0.00	29.773 
22:35	34.0	28.6	34.0	71	25.6	6	16	248	0.00	29.773 
22:40	33.8	29.2	33.8	71	25.4	5	12	248	0.00	29.773 
22:45	33.7	33.7	33.7	72	25.7	3	9	248	0.00	29.785 
22:50	33.7	28.3	33.7	71	25.3	6	11	248	0.00	29.785 
22:55	33.7	29.1	33.7	71	25.3	5	12	248	0.00	29.785 
23:00	33.5	29.8	33.5	71	25.1	4	10	248	0.00	29.786 
23:05	33.5	29.8	33.5	71	25.1	4	11	248	0.00	29.786 
23:10	33.5	33.5	33.5	72	25.5	3	6	248	0.00	29.786 
23:15	33.4	29.7	33.4	71	25.0	4	10	270	0.00	29.793 
23:20	33.4	29.7	33.4	72	25.4	4	10	248	0.00	29.793 
23:25	33.2	33.2	33.2	72	25.2	3	7	248	0.00	29.793 
23:30	33.2	33.2	33.2	73	25.5	3	7	248	0.00	29.798 
23:35	33.2	33.2	33.2	73	25.5	3	6	270	0.00	29.798 
23:40	33.2	28.5	33.2	73	25.5	5	10	248	0.00	29.798 
23:45	33.2	29.5	33.2	73	25.5	4	11	248	0.00	29.803 
23:50	33.2	29.5	33.2	73	25.5	4	14	248	0.00	29.803 
23:55	33.2	29.5	33.2	74	25.8	4	7	248	0.00	29.803 

CoCoRaHS
IN-AL-39
A2 Web Hosting
Creative Commons License
GoDaddy
search engine by freefind advanced

loaded 2018-11-13 17:27:27 • last modified 2010-11-18 10:43:29
Privacy PolicyDisclaimer
• wx.awcolley.com is powered by PmWiki v.2002016 •
• all content (unless otherwise noted) © 2018 A W Colley